METAR Data
IDs: Format: Raw Decoded Include TAF

Data at: 0313 UTC 25 Feb 2021

KLGB 250253Z 12003KT 9SM CLR 14/12 A3000 RMK AO2 SLP158 T01440117 53004